sensor_id;sensor_type;location;lat;lon;timestamp;temperature;humidity
37460;DHT22;23318;50.966;5.284;2022-09-21T00:00:17;9.80;99.90
37460;DHT22;23318;50.966;5.284;2022-09-21T00:02:43;9.70;99.90
37460;DHT22;23318;50.966;5.284;2022-09-21T00:05:09;9.60;99.90
37460;DHT22;23318;50.966;5.284;2022-09-21T00:07:34;9.50;99.90
37460;DHT22;23318;50.966;5.284;2022-09-21T00:10:00;9.10;99.90
37460;DHT22;23318;50.966;5.284;2022-09-21T00:12:26;9.30;99.90
37460;DHT22;23318;50.966;5.284;2022-09-21T00:14:52;9.50;99.90
37460;DHT22;23318;50.966;5.284;2022-09-21T00:17:17;9.60;99.90
37460;DHT22;23318;50.966;5.284;2022-09-21T00:19:43;9.50;99.90
37460;DHT22;23318;50.966;5.284;2022-09-21T00:22:09;9.50;99.90
37460;DHT22;23318;50.966;5.284;2022-09-21T00:24:35;9.50;99.90
37460;DHT22;23318;50.966;5.284;2022-09-21T00:27:01;9.50;99.90
37460;DHT22;23318;50.966;5.284;2022-09-21T00:29:26;9.40;99.90
37460;DHT22;23318;50.966;5.284;2022-09-21T00:31:52;9.40;99.90
37460;DHT22;23318;50.966;5.284;2022-09-21T00:34:18;9.40;99.90
37460;DHT22;23318;50.966;5.284;2022-09-21T00:36:43;9.40;99.90
37460;DHT22;23318;50.966;5.284;2022-09-21T00:39:09;9.30;99.90
37460;DHT22;23318;50.966;5.284;2022-09-21T00:41:35;9.30;99.90
37460;DHT22;23318;50.966;5.284;2022-09-21T00:46:46;9.20;99.90
37460;DHT22;23318;50.966;5.284;2022-09-21T00:49:14;9.10;99.90
37460;DHT22;23318;50.966;5.284;2022-09-21T00:51:40;9.10;99.90
37460;DHT22;23318;50.966;5.284;2022-09-21T00:54:10;9.20;99.90
37460;DHT22;23318;50.966;5.284;2022-09-21T00:56:41;8.80;99.90
37460;DHT22;23318;50.966;5.284;2022-09-21T00:59:08;8.90;99.90
37460;DHT22;23318;50.966;5.284;2022-09-21T01:01:35;9.10;99.90
37460;DHT22;23318;50.966;5.284;2022-09-21T01:04:04;9.00;99.90
37460;DHT22;23318;50.966;5.284;2022-09-21T01:06:32;8.90;99.90
37460;DHT22;23318;50.966;5.284;2022-09-21T01:08:59;8.50;99.90
37460;DHT22;23318;50.966;5.284;2022-09-21T01:15:14;9.10;99.90
37460;DHT22;23318;50.966;5.284;2022-09-21T01:17:21;9.20;99.90
37460;DHT22;23318;50.966;5.284;2022-09-21T01:30:15;8.90;99.90
37460;DHT22;23318;50.966;5.284;2022-09-21T01:33:08;8.90;99.90
37460;DHT22;23318;50.966;5.284;2022-09-21T01:35:42;8.90;99.90
37460;DHT22;23318;50.966;5.284;2022-09-21T01:38:16;8.80;99.90
37460;DHT22;23318;50.966;5.284;2022-09-21T01:40:48;8.80;99.90
37460;DHT22;23318;50.966;5.284;2022-09-21T01:43:21;8.80;99.90
37460;DHT22;23318;50.966;5.284;2022-09-21T01:45:51;8.80;99.90
37460;DHT22;23318;50.966;5.284;2022-09-21T01:48:21;8.80;99.90
37460;DHT22;23318;50.966;5.284;2022-09-21T01:50:53;8.70;99.90
37460;DHT22;23318;50.966;5.284;2022-09-21T01:53:31;8.80;99.90
37460;DHT22;23318;50.966;5.284;2022-09-21T01:56:10;8.70;99.90
37460;DHT22;23318;50.966;5.284;2022-09-21T01:58:45;8.70;99.90
37460;DHT22;23318;50.966;5.284;2022-09-21T02:01:14;8.70;99.90
37460;DHT22;23318;50.966;5.284;2022-09-21T02:03:46;8.60;99.90
37460;DHT22;23318;50.966;5.284;2022-09-21T02:06:14;8.60;99.90
37460;DHT22;23318;50.966;5.284;2022-09-21T02:08:39;8.60;99.90
37460;DHT22;23318;50.966;5.284;2022-09-21T02:11:06;8.60;99.90
37460;DHT22;23318;50.966;5.284;2022-09-21T02:13:35;8.60;99.90
37460;DHT22;23318;50.966;5.284;2022-09-21T02:21:29;8.20;99.90
37460;DHT22;23318;50.966;5.284;2022-09-21T02:26:42;8.40;99.90
37460;DHT22;23318;50.966;5.284;2022-09-21T02:29:21;8.50;99.90
37460;DHT22;23318;50.966;5.284;2022-09-21T02:32:02;8.40;99.90
37460;DHT22;23318;50.966;5.284;2022-09-21T02:37:09;7.60;99.90
37460;DHT22;23318;50.966;5.284;2022-09-21T02:39:58;7.30;99.90
37460;DHT22;23318;50.966;5.284;2022-09-21T02:42:36;7.50;99.90
37460;DHT22;23318;50.966;5.284;2022-09-21T02:45:14;8.00;99.90
37460;DHT22;23318;50.966;5.284;2022-09-21T02:47:59;8.40;99.90
37460;DHT22;23318;50.966;5.284;2022-09-21T02:50:52;8.60;99.90
37460;DHT22;23318;50.966;5.284;2022-09-21T02:53:26;8.70;99.90
37460;DHT22;23318;50.966;5.284;2022-09-21T02:55:54;8.70;99.90
37460;DHT22;23318;50.966;5.284;2022-09-21T02:58:21;8.70;99.90
37460;DHT22;23318;50.966;5.284;2022-09-21T03:00:49;8.50;99.90
37460;DHT22;23318;50.966;5.284;2022-09-21T03:03:20;8.40;99.90
37460;DHT22;23318;50.966;5.284;2022-09-21T03:05:48;8.40;99.90
37460;DHT22;23318;50.966;5.284;2022-09-21T03:08:18;8.50;99.90
37460;DHT22;23318;50.966;5.284;2022-09-21T03:10:44;8.40;99.90
37460;DHT22;23318;50.966;5.284;2022-09-21T03:13:11;8.30;99.90
37460;DHT22;23318;50.966;5.284;2022-09-21T03:15:40;7.50;99.90
37460;DHT22;23318;50.966;5.284;2022-09-21T03:18:08;6.90;99.90
37460;DHT22;23318;50.966;5.284;2022-09-21T03:20:38;6.80;99.90
37460;DHT22;23318;50.966;5.284;2022-09-21T03:23:04;6.90;99.90
37460;DHT22;23318;50.966;5.284;2022-09-21T03:25:30;7.10;99.90
37460;DHT22;23318;50.966;5.284;2022-09-21T03:27:57;7.50;99.90
37460;DHT22;23318;50.966;5.284;2022-09-21T03:30:24;7.40;99.90
37460;DHT22;23318;50.966;5.284;2022-09-21T03:32:52;7.10;99.90
37460;DHT22;23318;50.966;5.284;2022-09-21T03:35:19;6.50;99.90
37460;DHT22;23318;50.966;5.284;2022-09-21T03:37:46;6.20;99.90
37460;DHT22;23318;50.966;5.284;2022-09-21T03:40:12;6.60;99.90
37460;DHT22;23318;50.966;5.284;2022-09-21T03:42:43;7.10;99.90
37460;DHT22;23318;50.966;5.284;2022-09-21T03:45:10;7.50;99.90
37460;DHT22;23318;50.966;5.284;2022-09-21T03:47:37;7.70;99.90
37460;DHT22;23318;50.966;5.284;2022-09-21T03:50:04;7.70;99.90
37460;DHT22;23318;50.966;5.284;2022-09-21T03:52:30;7.60;99.90
37460;DHT22;23318;50.966;5.284;2022-09-21T03:54:56;7.40;99.90
37460;DHT22;23318;50.966;5.284;2022-09-21T03:57:22;7.10;99.90
37460;DHT22;23318;50.966;5.284;2022-09-21T03:59:48;7.30;99.90
37460;DHT22;23318;50.966;5.284;2022-09-21T04:02:15;7.60;99.90
37460;DHT22;23318;50.966;5.284;2022-09-21T04:04:41;7.80;99.90
37460;DHT22;23318;50.966;5.284;2022-09-21T04:07:08;7.70;99.90
37460;DHT22;23318;50.966;5.284;2022-09-21T04:09:33;7.80;99.90
37460;DHT22;23318;50.966;5.284;2022-09-21T04:11:59;7.80;99.90
37460;DHT22;23318;50.966;5.284;2022-09-21T04:14:25;7.80;99.90
37460;DHT22;23318;50.966;5.284;2022-09-21T04:16:50;7.80;99.90
37460;DHT22;23318;50.966;5.284;2022-09-21T04:19:17;7.70;99.90
37460;DHT22;23318;50.966;5.284;2022-09-21T04:21:42;7.60;99.90
37460;DHT22;23318;50.966;5.284;2022-09-21T04:24:08;7.70;99.90
37460;DHT22;23318;50.966;5.284;2022-09-21T04:26:34;7.80;99.90
37460;DHT22;23318;50.966;5.284;2022-09-21T04:29:01;8.00;99.90
37460;DHT22;23318;50.966;5.284;2022-09-21T04:31:28;8.00;99.90
37460;DHT22;23318;50.966;5.284;2022-09-21T04:33:55;7.90;99.90
37460;DHT22;23318;50.966;5.284;2022-09-21T04:36:22;8.10;99.90
37460;DHT22;23318;50.966;5.284;2022-09-21T04:38:49;8.10;99.90
37460;DHT22;23318;50.966;5.284;2022-09-21T04:41:15;8.10;99.90
37460;DHT22;23318;50.966;5.284;2022-09-21T04:43:43;8.20;99.90
37460;DHT22;23318;50.966;5.284;2022-09-21T04:46:11;8.30;99.90
37460;DHT22;23318;50.966;5.284;2022-09-21T04:48:38;8.30;99.90
37460;DHT22;23318;50.966;5.284;2022-09-21T04:51:05;8.40;99.90
37460;DHT22;23318;50.966;5.284;2022-09-21T04:53:33;8.30;99.90
37460;DHT22;23318;50.966;5.284;2022-09-21T04:55:59;8.30;99.90
37460;DHT22;23318;50.966;5.284;2022-09-21T04:58:25;8.10;99.90
37460;DHT22;23318;50.966;5.284;2022-09-21T05:00:52;8.10;99.90
37460;DHT22;23318;50.966;5.284;2022-09-21T05:03:19;8.30;99.90
37460;DHT22;23318;50.966;5.284;2022-09-21T05:05:50;8.40;99.90
37460;DHT22;23318;50.966;5.284;2022-09-21T05:08:16;8.50;99.90
37460;DHT22;23318;50.966;5.284;2022-09-21T05:10:43;8.50;99.90
37460;DHT22;23318;50.966;5.284;2022-09-21T05:13:09;8.50;99.90
37460;DHT22;23318;50.966;5.284;2022-09-21T05:15:38;8.30;99.90
37460;DHT22;23318;50.966;5.284;2022-09-21T05:18:04;8.30;99.90
37460;DHT22;23318;50.966;5.284;2022-09-21T05:20:30;8.40;99.90
37460;DHT22;23318;50.966;5.284;2022-09-21T05:22:59;8.40;99.90
37460;DHT22;23318;50.966;5.284;2022-09-21T05:25:26;8.10;99.90
37460;DHT22;23318;50.966;5.284;2022-09-21T05:27:51;8.20;99.90
37460;DHT22;23318;50.966;5.284;2022-09-21T05:30:17;8.40;99.90
37460;DHT22;23318;50.966;5.284;2022-09-21T05:32:48;8.60;99.90
37460;DHT22;23318;50.966;5.284;2022-09-21T05:38:22;8.80;99.90
37460;DHT22;23318;50.966;5.284;2022-09-21T05:40:48;8.60;99.90
37460;DHT22;23318;50.966;5.284;2022-09-21T05:43:15;8.70;99.90
37460;DHT22;23318;50.966;5.284;2022-09-21T05:45:45;8.80;99.90
37460;DHT22;23318;50.966;5.284;2022-09-21T05:48:50;8.90;99.90
37460;DHT22;23318;50.966;5.284;2022-09-21T05:51:36;9.00;99.90
37460;DHT22;23318;50.966;5.284;2022-09-21T06:05:15;9.10;99.90
37460;DHT22;23318;50.966;5.284;2022-09-21T06:07:41;8.90;99.90
37460;DHT22;23318;50.966;5.284;2022-09-21T06:10:08;9.10;99.90
37460;DHT22;23318;50.966;5.284;2022-09-21T06:12:34;9.00;99.90
37460;DHT22;23318;50.966;5.284;2022-09-21T06:14:59;8.90;99.90
37460;DHT22;23318;50.966;5.284;2022-09-21T06:17:25;9.20;99.90
37460;DHT22;23318;50.966;5.284;2022-09-21T06:19:54;8.80;99.90
37460;DHT22;23318;50.966;5.284;2022-09-21T06:22:20;8.80;99.90
37460;DHT22;23318;50.966;5.284;2022-09-21T06:24:46;8.70;99.90
37460;DHT22;23318;50.966;5.284;2022-09-21T06:27:11;8.80;99.90
37460;DHT22;23318;50.966;5.284;2022-09-21T06:29:37;8.40;99.90
37460;DHT22;23318;50.966;5.284;2022-09-21T06:32:03;8.10;99.90
37460;DHT22;23318;50.966;5.284;2022-09-21T06:34:29;8.20;99.90
37460;DHT22;23318;50.966;5.284;2022-09-21T06:36:55;8.80;99.90
37460;DHT22;23318;50.966;5.284;2022-09-21T06:39:21;9.20;99.90
37460;DHT22;23318;50.966;5.284;2022-09-21T06:41:47;9.50;99.90
37460;DHT22;23318;50.966;5.284;2022-09-21T06:44:12;9.80;99.90
37460;DHT22;23318;50.966;5.284;2022-09-21T06:46:38;9.70;99.90
37460;DHT22;23318;50.966;5.284;2022-09-21T06:49:04;10.00;99.90
37460;DHT22;23318;50.966;5.284;2022-09-21T06:51:29;10.10;99.90
37460;DHT22;23318;50.966;5.284;2022-09-21T06:53:56;10.10;99.90
37460;DHT22;23318;50.966;5.284;2022-09-21T06:56:23;10.10;99.90
37460;DHT22;23318;50.966;5.284;2022-09-21T06:58:48;10.20;99.90
37460;DHT22;23318;50.966;5.284;2022-09-21T07:01:15;10.20;99.90
37460;DHT22;23318;50.966;5.284;2022-09-21T07:03:41;10.30;99.90
37460;DHT22;23318;50.966;5.284;2022-09-21T07:06:09;10.30;99.90
37460;DHT22;23318;50.966;5.284;2022-09-21T07:08:40;10.50;99.90
37460;DHT22;23318;50.966;5.284;2022-09-21T07:11:06;10.60;99.90
37460;DHT22;23318;50.966;5.284;2022-09-21T07:13:33;10.60;99.90
37460;DHT22;23318;50.966;5.284;2022-09-21T07:16:03;10.50;99.90
37460;DHT22;23318;50.966;5.284;2022-09-21T07:18:32;10.10;99.90
37460;DHT22;23318;50.966;5.284;2022-09-21T07:21:02;10.20;99.90
37460;DHT22;23318;50.966;5.284;2022-09-21T07:23:28;10.60;99.90
37460;DHT22;23318;50.966;5.284;2022-09-21T07:25:54;10.60;99.90
37460;DHT22;23318;50.966;5.284;2022-09-21T07:28:20;10.40;99.90
37460;DHT22;23318;50.966;5.284;2022-09-21T07:30:46;10.50;99.90
37460;DHT22;23318;50.966;5.284;2022-09-21T07:33:11;10.70;99.90
37460;DHT22;23318;50.966;5.284;2022-09-21T07:35:37;10.90;99.90
37460;DHT22;23318;50.966;5.284;2022-09-21T07:38:06;11.00;99.90
37460;DHT22;23318;50.966;5.284;2022-09-21T07:40:33;11.10;99.90
37460;DHT22;23318;50.966;5.284;2022-09-21T07:42:59;10.70;99.90
37460;DHT22;23318;50.966;5.284;2022-09-21T07:45:27;11.00;99.90
37460;DHT22;23318;50.966;5.284;2022-09-21T07:47:53;11.30;99.90
37460;DHT22;23318;50.966;5.284;2022-09-21T07:50:22;11.60;99.90
37460;DHT22;23318;50.966;5.284;2022-09-21T07:52:48;11.80;99.90
37460;DHT22;23318;50.966;5.284;2022-09-21T07:55:14;12.00;99.90
37460;DHT22;23318;50.966;5.284;2022-09-21T07:57:40;12.30;99.90
37460;DHT22;23318;50.966;5.284;2022-09-21T08:00:24;12.40;99.90
37460;DHT22;23318;50.966;5.284;2022-09-21T08:02:52;12.20;99.90
37460;DHT22;23318;50.966;5.284;2022-09-21T08:05:18;12.20;99.90
37460;DHT22;23318;50.966;5.284;2022-09-21T08:07:44;12.30;99.90
37460;DHT22;23318;50.966;5.284;2022-09-21T08:10:09;12.30;99.90
37460;DHT22;23318;50.966;5.284;2022-09-21T08:12:35;12.50;99.90
37460;DHT22;23318;50.966;5.284;2022-09-21T08:15:01;13.00;99.90
37460;DHT22;23318;50.966;5.284;2022-09-21T08:17:27;12.90;99.90
37460;DHT22;23318;50.966;5.284;2022-09-21T08:19:54;12.10;99.90
37460;DHT22;23318;50.966;5.284;2022-09-21T08:22:19;11.60;99.90
37460;DHT22;23318;50.966;5.284;2022-09-21T08:24:49;12.00;99.90
37460;DHT22;23318;50.966;5.284;2022-09-21T08:27:14;12.10;99.90
37460;DHT22;23318;50.966;5.284;2022-09-21T08:29:40;12.00;99.90
37460;DHT22;23318;50.966;5.284;2022-09-21T08:32:06;11.90;99.90
37460;DHT22;23318;50.966;5.284;2022-09-21T08:34:32;12.10;99.90
37460;DHT22;23318;50.966;5.284;2022-09-21T08:36:58;12.40;99.90
37460;DHT22;23318;50.966;5.284;2022-09-21T08:39:23;12.90;99.90
37460;DHT22;23318;50.966;5.284;2022-09-21T08:44:18;13.40;99.90
37460;DHT22;23318;50.966;5.284;2022-09-21T08:46:48;13.60;99.90
37460;DHT22;23318;50.966;5.284;2022-09-21T08:49:24;13.40;99.90
37460;DHT22;23318;50.966;5.284;2022-09-21T08:51:54;13.60;99.90
37460;DHT22;23318;50.966;5.284;2022-09-21T08:54:45;13.90;99.90
37460;DHT22;23318;50.966;5.284;2022-09-21T08:57:13;13.60;99.90
37460;DHT22;23318;50.966;5.284;2022-09-21T08:59:43;13.60;99.90
37460;DHT22;23318;50.966;5.284;2022-09-21T09:18:43;14.10;99.90
37460;DHT22;23318;50.966;5.284;2022-09-21T09:21:33;14.20;99.90
37460;DHT22;23318;50.966;5.284;2022-09-21T09:24:23;14.90;99.90
37460;DHT22;23318;50.966;5.284;2022-09-21T09:26:52;14.60;99.90
37460;DHT22;23318;50.966;5.284;2022-09-21T09:32:12;15.00;99.90
37460;DHT22;23318;50.966;5.284;2022-09-21T09:34:41;15.40;99.90
37460;DHT22;23318;50.966;5.284;2022-09-21T09:37:14;15.90;99.90
37460;DHT22;23318;50.966;5.284;2022-09-21T09:39:42;15.80;99.90
37460;DHT22;23318;50.966;5.284;2022-09-21T09:42:31;15.60;99.90
37460;DHT22;23318;50.966;5.284;2022-09-21T09:45:32;15.40;99.90
37460;DHT22;23318;50.966;5.284;2022-09-21T09:50:47;15.10;99.90
37460;DHT22;23318;50.966;5.284;2022-09-21T09:53:19;15.70;99.90
37460;DHT22;23318;50.966;5.284;2022-09-21T09:55:56;16.30;99.90
37460;DHT22;23318;50.966;5.284;2022-09-21T10:00:57;16.50;99.90
37460;DHT22;23318;50.966;5.284;2022-09-21T10:03:25;16.80;99.90
37460;DHT22;23318;50.966;5.284;2022-09-21T10:05:51;17.10;99.90
37460;DHT22;23318;50.966;5.284;2022-09-21T10:08:38;17.20;99.90
37460;DHT22;23318;50.966;5.284;2022-09-21T10:11:06;17.20;99.90
37460;DHT22;23318;50.966;5.284;2022-09-21T10:13:34;16.90;99.90
37460;DHT22;23318;50.966;5.284;2022-09-21T10:16:09;17.00;99.90
37460;DHT22;23318;50.966;5.284;2022-09-21T10:18:54;16.60;99.90
37460;DHT22;23318;50.966;5.284;2022-09-21T10:23:58;17.50;99.90
37460;DHT22;23318;50.966;5.284;2022-09-21T10:26:41;18.40;99.90
37460;DHT22;23318;50.966;5.284;2022-09-21T10:29:28;20.30;99.90
37460;DHT22;23318;50.966;5.284;2022-09-21T10:32:01;22.20;98.10
37460;DHT22;23318;50.966;5.284;2022-09-21T10:34:32;23.40;95.10
37460;DHT22;23318;50.966;5.284;2022-09-21T10:37:00;24.60;93.30
37460;DHT22;23318;50.966;5.284;2022-09-21T10:39:31;23.80;93.60
37460;DHT22;23318;50.966;5.284;2022-09-21T10:44:41;23.40;93.00
37460;DHT22;23318;50.966;5.284;2022-09-21T10:47:36;24.70;92.20
37460;DHT22;23318;50.966;5.284;2022-09-21T10:50:26;23.80;92.20
37460;DHT22;23318;50.966;5.284;2022-09-21T10:53:18;25.50;92.00
37460;DHT22;23318;50.966;5.284;2022-09-21T10:58:23;23.20;92.70
37460;DHT22;23318;50.966;5.284;2022-09-21T11:00:50;21.90;94.80
37460;DHT22;23318;50.966;5.284;2022-09-21T11:06:02;21.10;95.40
37460;DHT22;23318;50.966;5.284;2022-09-21T11:11:19;20.60;97.00
37460;DHT22;23318;50.966;5.284;2022-09-21T11:13:57;20.60;98.20
37460;DHT22;23318;50.966;5.284;2022-09-21T11:16:32;19.90;99.20
37460;DHT22;23318;50.966;5.284;2022-09-21T11:21:51;19.00;99.90
37460;DHT22;23318;50.966;5.284;2022-09-21T11:24:29;18.70;99.90
37460;DHT22;23318;50.966;5.284;2022-09-21T11:27:11;19.00;99.90
37460;DHT22;23318;50.966;5.284;2022-09-21T11:30:05;19.20;99.90
37460;DHT22;23318;50.966;5.284;2022-09-21T11:40:53;19.30;99.90
37460;DHT22;23318;50.966;5.284;2022-09-21T11:52:24;19.20;99.90
37460;DHT22;23318;50.966;5.284;2022-09-21T12:00:22;19.50;99.90
37460;DHT22;23318;50.966;5.284;2022-09-21T12:03:11;19.40;99.90
37460;DHT22;23318;50.966;5.284;2022-09-21T12:15:00;20.70;97.80
37460;DHT22;23318;50.966;5.284;2022-09-21T12:23:44;21.20;97.30
37460;DHT22;23318;50.966;5.284;2022-09-21T12:26:18;21.30;95.50
37460;DHT22;23318;50.966;5.284;2022-09-21T12:28:51;20.60;96.10
37460;DHT22;23318;50.966;5.284;2022-09-21T12:31:25;22.10;94.60
37460;DHT22;23318;50.966;5.284;2022-09-21T12:33:57;25.70;89.40
37460;DHT22;23318;50.966;5.284;2022-09-21T12:39:29;24.80;88.20
37460;DHT22;23318;50.966;5.284;2022-09-21T12:44:55;25.90;87.50
37460;DHT22;23318;50.966;5.284;2022-09-21T12:47:44;26.30;84.40
37460;DHT22;23318;50.966;5.284;2022-09-21T12:53:00;28.60;80.60
37460;DHT22;23318;50.966;5.284;2022-09-21T13:09:15;33.60;64.70
37460;DHT22;23318;50.966;5.284;2022-09-21T13:11:54;33.00;63.40
37460;DHT22;23318;50.966;5.284;2022-09-21T13:14:28;29.90;65.80
37460;DHT22;23318;50.966;5.284;2022-09-21T13:16:57;27.80;68.70
37460;DHT22;23318;50.966;5.284;2022-09-21T13:19:27;25.10;71.00
37460;DHT22;23318;50.966;5.284;2022-09-21T13:22:19;23.80;76.90
37460;DHT22;23318;50.966;5.284;2022-09-21T13:25:05;22.90;81.70
37460;DHT22;23318;50.966;5.284;2022-09-21T13:28:00;23.10;83.20
37460;DHT22;23318;50.966;5.284;2022-09-21T13:30:39;22.70;83.10
37460;DHT22;23318;50.966;5.284;2022-09-21T13:41:24;21.70;89.00
37460;DHT22;23318;50.966;5.284;2022-09-21T13:49:22;21.70;88.20
37460;DHT22;23318;50.966;5.284;2022-09-21T13:54:15;22.00;88.80
37460;DHT22;23318;50.966;5.284;2022-09-21T13:56:42;22.80;86.60
37460;DHT22;23318;50.966;5.284;2022-09-21T13:59:20;25.30;83.30
37460;DHT22;23318;50.966;5.284;2022-09-21T14:01:47;25.30;81.80
37460;DHT22;23318;50.966;5.284;2022-09-21T14:04:26;24.70;81.30
37460;DHT22;23318;50.966;5.284;2022-09-21T14:06:55;24.80;82.20
37460;DHT22;23318;50.966;5.284;2022-09-21T14:09:40;26.50;78.80
37460;DHT22;23318;50.966;5.284;2022-09-21T14:12:11;28.80;77.30
37460;DHT22;23318;50.966;5.284;2022-09-21T14:14:42;29.90;73.10
37460;DHT22;23318;50.966;5.284;2022-09-21T14:17:40;28.90;71.00
37460;DHT22;23318;50.966;5.284;2022-09-21T14:23:28;29.70;68.70
37460;DHT22;23318;50.966;5.284;2022-09-21T14:26:03;28.30;68.40
37460;DHT22;23318;50.966;5.284;2022-09-21T14:28:43;28.10;68.60
37460;DHT22;23318;50.966;5.284;2022-09-21T14:31:19;28.10;69.60
37460;DHT22;23318;50.966;5.284;2022-09-21T14:33:53;28.90;69.30
37460;DHT22;23318;50.966;5.284;2022-09-21T14:36:30;29.30;69.00
37460;DHT22;23318;50.966;5.284;2022-09-21T14:39:02;29.30;68.60
37460;DHT22;23318;50.966;5.284;2022-09-21T14:41:37;30.30;66.60
37460;DHT22;23318;50.966;5.284;2022-09-21T14:44:04;30.60;65.60
37460;DHT22;23318;50.966;5.284;2022-09-21T14:46:54;30.00;64.70
37460;DHT22;23318;50.966;5.284;2022-09-21T14:55:12;30.10;63.10
37460;DHT22;23318;50.966;5.284;2022-09-21T14:57:48;31.20;61.70
37460;DHT22;23318;50.966;5.284;2022-09-21T15:00:21;30.60;62.30
37460;DHT22;23318;50.966;5.284;2022-09-21T15:06:20;31.00;61.70
37460;DHT22;23318;50.966;5.284;2022-09-21T15:09:28;30.00;62.40
37460;DHT22;23318;50.966;5.284;2022-09-21T15:12:25;29.80;63.50
37460;DHT22;23318;50.966;5.284;2022-09-21T15:17:29;29.20;63.20
37460;DHT22;23318;50.966;5.284;2022-09-21T15:20:00;28.10;63.10
37460;DHT22;23318;50.966;5.284;2022-09-21T15:22:42;28.80;63.90
37460;DHT22;23318;50.966;5.284;2022-09-21T15:25:11;28.80;64.20
37460;DHT22;23318;50.966;5.284;2022-09-21T15:27:42;27.90;63.40
37460;DHT22;23318;50.966;5.284;2022-09-21T15:30:21;27.70;63.70
37460;DHT22;23318;50.966;5.284;2022-09-21T15:32:53;27.60;64.10
37460;DHT22;23318;50.966;5.284;2022-09-21T15:35:27;28.20;63.50
37460;DHT22;23318;50.966;5.284;2022-09-21T15:37:55;29.40;62.40
37460;DHT22;23318;50.966;5.284;2022-09-21T15:40:23;28.90;62.00
37460;DHT22;23318;50.966;5.284;2022-09-21T15:48:09;29.30;63.20
37460;DHT22;23318;50.966;5.284;2022-09-21T15:50:37;29.30;61.60
37460;DHT22;23318;50.966;5.284;2022-09-21T15:53:11;28.60;62.70
37460;DHT22;23318;50.966;5.284;2022-09-21T15:55:39;28.40;63.60
37460;DHT22;23318;50.966;5.284;2022-09-21T15:58:26;27.70;63.50
37460;DHT22;23318;50.966;5.284;2022-09-21T16:00:54;28.10;64.10
37460;DHT22;23318;50.966;5.284;2022-09-21T16:03:23;28.50;64.10
37460;DHT22;23318;50.966;5.284;2022-09-21T16:05:54;28.70;63.70
37460;DHT22;23318;50.966;5.284;2022-09-21T16:08:33;28.00;64.00
37460;DHT22;23318;50.966;5.284;2022-09-21T16:14:17;27.70;63.60
37460;DHT22;23318;50.966;5.284;2022-09-21T16:17:22;27.70;64.40
37460;DHT22;23318;50.966;5.284;2022-09-21T16:24:58;27.30;65.40
37460;DHT22;23318;50.966;5.284;2022-09-21T16:27:27;26.90;66.80
37460;DHT22;23318;50.966;5.284;2022-09-21T16:29:55;26.00;67.40
37460;DHT22;23318;50.966;5.284;2022-09-21T16:32:27;25.40;67.40
37460;DHT22;23318;50.966;5.284;2022-09-21T16:35:22;24.30;70.10
37460;DHT22;23318;50.966;5.284;2022-09-21T16:37:54;23.40;73.60
37460;DHT22;23318;50.966;5.284;2022-09-21T16:40:22;22.60;75.70
37460;DHT22;23318;50.966;5.284;2022-09-21T16:42:48;21.90;76.40
37460;DHT22;23318;50.966;5.284;2022-09-21T16:45:28;21.30;78.40
37460;DHT22;23318;50.966;5.284;2022-09-21T16:47:56;21.00;80.90
37460;DHT22;23318;50.966;5.284;2022-09-21T16:50:22;20.60;83.70
37460;DHT22;23318;50.966;5.284;2022-09-21T16:52:48;20.30;85.20
37460;DHT22;23318;50.966;5.284;2022-09-21T16:55:20;20.00;88.10
37460;DHT22;23318;50.966;5.284;2022-09-21T16:57:46;20.10;90.80
37460;DHT22;23318;50.966;5.284;2022-09-21T17:00:15;20.10;90.10
37460;DHT22;23318;50.966;5.284;2022-09-21T17:02:47;20.00;91.10
37460;DHT22;23318;50.966;5.284;2022-09-21T17:05:13;19.90;92.70
37460;DHT22;23318;50.966;5.284;2022-09-21T17:07:51;19.80;93.90
37460;DHT22;23318;50.966;5.284;2022-09-21T17:10:18;19.60;94.00
37460;DHT22;23318;50.966;5.284;2022-09-21T17:12:45;19.40;95.00
37460;DHT22;23318;50.966;5.284;2022-09-21T17:15:12;19.30;99.90
37460;DHT22;23318;50.966;5.284;2022-09-21T17:17:38;19.20;99.90
37460;DHT22;23318;50.966;5.284;2022-09-21T17:20:32;19.10;99.90
37460;DHT22;23318;50.966;5.284;2022-09-21T17:22:58;18.90;99.90
37460;DHT22;23318;50.966;5.284;2022-09-21T17:25:26;18.70;99.90
37460;DHT22;23318;50.966;5.284;2022-09-21T17:27:53;18.30;99.90
37460;DHT22;23318;50.966;5.284;2022-09-21T17:30:22;18.00;99.90
37460;DHT22;23318;50.966;5.284;2022-09-21T17:32:49;17.90;99.90
37460;DHT22;23318;50.966;5.284;2022-09-21T17:37:56;17.50;99.90
37460;DHT22;23318;50.966;5.284;2022-09-21T17:40:22;17.40;99.90
37460;DHT22;23318;50.966;5.284;2022-09-21T17:42:49;17.20;99.90
37460;DHT22;23318;50.966;5.284;2022-09-21T17:45:31;17.10;99.90
37460;DHT22;23318;50.966;5.284;2022-09-21T17:48:04;16.90;99.90
37460;DHT22;23318;50.966;5.284;2022-09-21T17:50:30;16.80;99.90
37460;DHT22;23318;50.966;5.284;2022-09-21T17:52:57;16.70;99.90
37460;DHT22;23318;50.966;5.284;2022-09-21T17:55:48;16.50;99.90
37460;DHT22;23318;50.966;5.284;2022-09-21T17:58:50;16.40;99.90
37460;DHT22;23318;50.966;5.284;2022-09-21T18:03:46;16.20;99.90
37460;DHT22;23318;50.966;5.284;2022-09-21T18:06:13;16.10;99.90
37460;DHT22;23318;50.966;5.284;2022-09-21T18:08:39;15.80;99.90
37460;DHT22;23318;50.966;5.284;2022-09-21T18:16:34;15.50;99.90
37460;DHT22;23318;50.966;5.284;2022-09-21T18:22:05;15.50;99.90
37460;DHT22;23318;50.966;5.284;2022-09-21T18:24:36;15.40;99.90
37460;DHT22;23318;50.966;5.284;2022-09-21T18:27:02;15.30;99.90
37460;DHT22;23318;50.966;5.284;2022-09-21T18:32:28;15.00;99.90
37460;DHT22;23318;50.966;5.284;2022-09-21T18:46:14;14.60;99.90
37460;DHT22;23318;50.966;5.284;2022-09-21T18:48:52;14.60;99.90
37460;DHT22;23318;50.966;5.284;2022-09-21T18:54:21;14.50;99.90
37460;DHT22;23318;50.966;5.284;2022-09-21T18:56:47;14.40;99.90
37460;DHT22;23318;50.966;5.284;2022-09-21T18:59:13;14.40;99.90
37460;DHT22;23318;50.966;5.284;2022-09-21T19:01:41;14.30;99.90
37460;DHT22;23318;50.966;5.284;2022-09-21T19:04:08;14.30;99.90
37460;DHT22;23318;50.966;5.284;2022-09-21T19:06:38;14.10;99.90
37460;DHT22;23318;50.966;5.284;2022-09-21T19:09:55;14.10;99.90
37460;DHT22;23318;50.966;5.284;2022-09-21T19:27:38;13.60;99.90
37460;DHT22;23318;50.966;5.284;2022-09-21T19:30:10;13.60;99.90
37460;DHT22;23318;50.966;5.284;2022-09-21T19:32:46;13.60;99.90
37460;DHT22;23318;50.966;5.284;2022-09-21T19:35:19;13.50;99.90
37460;DHT22;23318;50.966;5.284;2022-09-21T19:37:46;13.40;99.90
37460;DHT22;23318;50.966;5.284;2022-09-21T19:40:17;13.40;99.90
37460;DHT22;23318;50.966;5.284;2022-09-21T19:45:51;13.20;99.90
37460;DHT22;23318;50.966;5.284;2022-09-21T19:48:23;13.20;99.90
37460;DHT22;23318;50.966;5.284;2022-09-21T19:50:56;13.20;99.90
37460;DHT22;23318;50.966;5.284;2022-09-21T19:53:23;13.10;99.90
37460;DHT22;23318;50.966;5.284;2022-09-21T19:56:14;13.10;99.90
37460;DHT22;23318;50.966;5.284;2022-09-21T19:58:59;13.00;99.90
37460;DHT22;23318;50.966;5.284;2022-09-21T20:01:53;13.00;99.90